Time;durP1;ratioP1;P1;durP2;ratioP2;P2;SDS_P1;SDS_P2;PMS_P1;PMS_P2;Temp;Humidity;BMP_temperature;BMP_pressure;BME280_temperature;BME280_humidity;BME280_pressure;Samples;Min_cycle;Max_cycle;Signal;HPM_P1;HPM_P2
2024/02/26 00:01:45;;;;;;;11.40;4.22;;;;;;;-148.99;100.00;63224.25;5051530;28;20025;-70
2024/02/26 00:04:11;;;;;;;7.93;4.18;;;;;;;-148.99;100.00;63224.25;5051635;28;20109;-68
2024/02/26 00:06:39;;;;;;;8.57;4.75;;;;;;;-148.99;100.00;63224.25;5052266;28;20066;-66
2024/02/26 00:09:06;;;;;;;9.15;4.25;;;;;;;-148.99;100.00;63224.25;5052078;28;20029;-67
2024/02/26 00:11:31;;;;;;;9.68;4.40;;;;;;;-148.99;100.00;63224.25;5051873;28;20123;-70
2024/02/26 00:13:57;;;;;;;7.28;4.13;;;;;;;-148.99;100.00;63224.25;5051303;28;20431;-69
2024/02/26 00:16:23;;;;;;;9.73;4.40;;;;;;;-148.99;100.00;63224.25;5051047;28;20033;-68
2024/02/26 00:18:48;;;;;;;6.22;4.00;;;;;;;-148.99;100.00;63224.25;5051645;27;20101;-70
2024/02/26 00:21:14;;;;;;;7.82;4.40;;;;;;;-148.99;100.00;63224.25;5051053;28;20409;-69
2024/02/26 00:23:39;;;;;;;9.20;4.40;;;;;;;-148.99;100.00;63224.25;5051474;28;20033;-70
2024/02/26 00:26:05;;;;;;;6.82;3.70;;;;;;;-148.99;100.00;63224.25;5051873;28;20453;-67
2024/02/26 00:28:31;;;;;;;9.63;4.50;;;;;;;-148.99;100.00;63224.25;5051976;28;20111;-70
2024/02/26 00:30:56;;;;;;;9.23;4.47;;;;;;;-148.99;100.00;63224.25;5050108;28;20032;-69
2024/02/26 00:33:22;;;;;;;7.18;4.53;;;;;;;-148.99;100.00;63224.25;5051181;28;20081;-70
2024/02/26 00:35:48;;;;;;;8.55;3.88;;;;;;;-148.99;100.00;63224.25;5051802;28;20032;-70
2024/02/26 00:38:14;;;;;;;7.00;4.38;;;;;;;-148.99;100.00;63224.25;5050914;28;20029;-76
2024/02/26 00:40:40;;;;;;;8.52;4.00;;;;;;;-148.99;100.00;63224.25;5050870;28;20458;-75
2024/02/26 00:43:09;;;;;;;8.25;4.35;;;;;;;-148.99;100.00;63224.25;5051242;28;20040;-74
2024/02/26 00:45:34;;;;;;;9.45;4.30;;;;;;;-148.99;100.00;63224.25;5050267;28;20444;-68
2024/02/26 00:48:04;;;;;;;6.80;4.22;;;;;;;-148.99;100.00;63224.25;5051204;28;20062;-74
2024/02/26 00:50:30;;;;;;;11.60;4.32;;;;;;;-148.99;100.00;63224.25;5051044;28;20025;-74
2024/02/26 00:52:55;;;;;;;12.90;5.43;;;;;;;-148.99;100.00;63224.25;5049661;28;20045;-73
2024/02/26 00:55:21;;;;;;;7.30;3.78;;;;;;;-148.99;100.00;63224.25;5051166;28;20052;-74
2024/02/26 00:57:46;;;;;;;9.60;3.92;;;;;;;-148.99;100.00;63224.25;5050681;28;20032;-74
2024/02/26 01:00:12;;;;;;;5.88;3.95;;;;;;;-148.99;100.00;63224.25;5051001;28;20025;-73
2024/02/26 01:02:38;;;;;;;9.57;4.00;;;;;;;-148.99;100.00;63224.25;5050437;28;20028;-73
2024/02/26 01:05:06;;;;;;;6.78;4.18;;;;;;;-148.99;100.00;63224.25;5050663;28;20033;-63
2024/02/26 01:07:35;;;;;;;9.05;4.13;;;;;;;-148.99;100.00;63224.25;5051002;28;20052;-73
2024/02/26 01:10:02;;;;;;;10.60;3.97;;;;;;;-148.99;100.00;63224.25;5050627;28;20108;-71
2024/02/26 01:12:28;;;;;;;7.50;3.95;;;;;;;-148.99;100.00;63224.25;5050141;27;20032;-70
2024/02/26 01:14:53;;;;;;;7.97;4.00;;;;;;;-148.99;100.00;63224.25;5050824;28;20025;-71
2024/02/26 01:17:19;;;;;;;7.38;3.85;;;;;;;-148.99;100.00;63224.25;5050298;28;20025;-71
2024/02/26 01:19:44;;;;;;;7.78;3.80;;;;;;;-148.99;100.00;63224.25;5050428;28;20033;-71
2024/02/26 01:22:10;;;;;;;8.75;3.80;;;;;;;-148.99;100.00;63224.25;5049546;28;20051;-71
2024/02/26 01:24:35;;;;;;;7.88;3.55;;;;;;;-148.99;100.00;63224.25;5051012;28;20037;-70
2024/02/26 01:27:00;;;;;;;10.98;4.20;;;;;;;-148.99;100.00;63224.25;5050671;28;20094;-71
2024/02/26 01:29:26;;;;;;;4.47;3.45;;;;;;;-148.99;100.00;63224.25;5049087;28;20036;-71
2024/02/26 01:31:51;;;;;;;11.13;3.92;;;;;;;-148.99;100.00;63224.25;5050083;28;20455;-73
2024/02/26 01:34:18;;;;;;;6.80;3.28;;;;;;;-148.99;100.00;63224.25;5050400;28;20036;-71
2024/02/26 01:36:44;;;;;;;6.60;3.70;;;;;;;-148.99;100.00;63224.25;5050167;28;20033;-72
2024/02/26 01:39:12;;;;;;;7.50;3.63;;;;;;;-148.99;100.00;63224.25;5050155;28;20037;-71
2024/02/26 01:41:38;;;;;;;7.60;3.35;;;;;;;-148.99;100.00;63224.25;5051009;28;20033;-71
2024/02/26 01:44:04;;;;;;;6.95;3.30;;;;;;;-148.99;100.00;63224.25;5049635;28;20099;-64
2024/02/26 01:46:33;;;;;;;6.10;3.42;;;;;;;-148.99;100.00;63224.25;5049907;28;20464;-72
2024/02/26 01:49:00;;;;;;;6.95;3.47;;;;;;;-148.99;100.00;63224.25;5049538;28;20136;-71
2024/02/26 01:51:26;;;;;;;5.93;3.33;;;;;;;-148.99;100.00;63224.25;5049917;28;20056;-70
2024/02/26 01:53:52;;;;;;;8.70;3.63;;;;;;;-148.99;100.00;63224.25;5050358;28;20041;-70
2024/02/26 01:56:19;;;;;;;5.88;3.28;;;;;;;-148.99;100.00;63224.25;5049690;28;20051;-70
2024/02/26 01:58:45;;;;;;;8.32;3.35;;;;;;;-148.99;100.00;63224.25;5049105;28;20044;-71
2024/02/26 02:01:12;;;;;;;6.72;3.10;;;;;;;-148.99;100.00;63224.25;5050020;28;20029;-69
2024/02/26 02:03:37;;;;;;;5.95;3.55;;;;;;;-148.99;100.00;63224.25;5050356;28;20039;-68
2024/02/26 02:06:04;;;;;;;8.95;3.10;;;;;;;-148.99;100.00;63224.25;5049940;28;20029;-70
2024/02/26 02:08:29;;;;;;;10.15;3.13;;;;;;;-148.99;100.00;63224.25;5049992;28;20032;-70
2024/02/26 02:10:56;;;;;;;6.22;3.22;;;;;;;-148.99;100.00;63224.25;5050031;28;20040;-70
2024/02/26 02:13:21;;;;;;;9.40;3.53;;;;;;;-148.99;100.00;63224.25;5049717;28;20033;-69
2024/02/26 02:15:47;;;;;;;8.25;3.38;;;;;;;-148.99;100.00;63224.25;5049468;28;20120;-70
2024/02/26 02:18:12;;;;;;;6.88;2.97;;;;;;;-148.99;100.00;63224.25;5048213;28;20057;-70
2024/02/26 02:20:38;;;;;;;10.02;3.00;;;;;;;-148.99;100.00;63224.25;5049415;28;20044;-70
2024/02/26 02:23:03;;;;;;;5.45;3.00;;;;;;;-148.99;100.00;63224.25;5049065;28;20041;-69
2024/02/26 02:25:29;;;;;;;8.63;3.10;;;;;;;-148.99;100.00;63224.25;5049435;28;20511;-70
2024/02/26 02:27:55;;;;;;;6.25;2.75;;;;;;;-148.99;100.00;63224.25;5049320;28;20029;-71
2024/02/26 02:30:25;;;;;;;8.55;3.08;;;;;;;-148.99;100.00;63224.25;5048284;28;20101;-72
2024/02/26 02:32:51;;;;;;;5.97;3.20;;;;;;;-148.99;100.00;63224.25;5048990;28;20033;-72
2024/02/26 02:35:17;;;;;;;4.07;2.58;;;;;;;-148.99;100.00;63224.25;5049140;28;20093;-72
2024/02/26 02:37:42;;;;;;;7.85;2.97;;;;;;;-148.99;100.00;63224.25;5049250;28;20029;-70
2024/02/26 02:40:08;;;;;;;7.70;2.95;;;;;;;-148.99;100.00;63224.25;5049421;28;20025;-72
2024/02/26 02:42:33;;;;;;;7.93;2.85;;;;;;;-148.99;100.00;63224.25;5049317;28;20029;-71
2024/02/26 02:44:59;;;;;;;4.30;2.72;;;;;;;-148.99;100.00;63224.25;5048512;28;20112;-71
2024/02/26 02:47:24;;;;;;;4.75;2.75;;;;;;;-148.99;100.00;63224.25;5049029;28;20045;-71
2024/02/26 02:49:50;;;;;;;7.60;2.58;;;;;;;-148.99;100.00;63224.25;5048117;28;20029;-70
2024/02/26 02:52:15;;;;;;;9.38;2.67;;;;;;;-148.99;100.00;63224.25;5048866;28;20073;-70
2024/02/26 02:54:42;;;;;;;5.60;2.80;;;;;;;-148.99;100.00;63224.25;5048950;28;20044;-69
2024/02/26 02:57:08;;;;;;;5.43;2.70;;;;;;;-148.99;100.00;63224.25;5049620;28;20040;-70
2024/02/26 02:59:34;;;;;;;4.78;2.97;;;;;;;-148.99;100.00;63224.25;5049317;28;20051;-71
2024/02/26 03:01:59;;;;;;;10.23;4.18;;;;;;;-148.99;100.00;63224.25;5048146;28;20465;-70
2024/02/26 03:04:25;;;;;;;7.95;2.97;;;;;;;-148.99;100.00;63224.25;5049193;28;20467;-71
2024/02/26 03:06:50;;;;;;;4.88;2.78;;;;;;;-148.99;100.00;63224.25;5048983;28;20025;-70
2024/02/26 03:09:34;;;;;;;6.35;2.67;;;;;;;-148.99;100.00;63224.25;5048709;28;20040;-64
2024/02/26 03:12:00;;;;;;;7.32;2.25;;;;;;;-148.99;100.00;63224.25;5049798;28;20041;-72
2024/02/26 03:14:26;;;;;;;6.40;3.00;;;;;;;-148.99;100.00;63224.25;5048584;28;20445;-72
2024/02/26 03:16:54;;;;;;;6.00;2.63;;;;;;;-148.99;100.00;63224.25;5048711;28;20090;-70
2024/02/26 03:19:20;;;;;;;6.45;3.05;;;;;;;-148.99;100.00;63224.25;5049132;28;20089;-68
2024/02/26 03:21:46;;;;;;;5.15;2.50;;;;;;;-148.99;100.00;63224.25;5048522;28;20033;-67
2024/02/26 03:24:11;;;;;;;6.97;3.03;;;;;;;-148.99;100.00;63224.25;5047701;28;20353;-67
2024/02/26 03:26:37;;;;;;;8.93;3.05;;;;;;;-148.99;100.00;63224.25;5048859;28;20051;-65
2024/02/26 03:29:03;;;;;;;5.18;2.70;;;;;;;-148.99;100.00;63224.25;5049069;28;20112;-71
2024/02/26 03:31:29;;;;;;;9.18;3.35;;;;;;;-148.99;100.00;63224.25;5048302;28;20057;-72
2024/02/26 03:33:54;;;;;;;4.22;2.47;;;;;;;-148.99;100.00;63224.25;5048303;28;20037;-71
2024/02/26 03:36:21;;;;;;;5.72;2.78;;;;;;;-148.99;100.00;63224.25;5048726;28;20041;-71
2024/02/26 03:38:47;;;;;;;5.13;2.50;;;;;;;-148.99;100.00;63224.25;5048733;28;20035;-71
2024/02/26 03:41:12;;;;;;;6.57;2.70;;;;;;;-148.99;100.00;63224.25;5048239;28;20040;-71
2024/02/26 03:43:38;;;;;;;6.55;3.08;;;;;;;-148.99;100.00;63224.25;5047361;28;20032;-71
2024/02/26 03:46:03;;;;;;;7.85;3.42;;;;;;;-148.99;100.00;63224.25;5049216;28;20116;-72
2024/02/26 03:48:29;;;;;;;4.50;2.67;;;;;;;-148.99;100.00;63224.25;5048538;28;20100;-73
2024/02/26 03:50:55;;;;;;;6.25;2.63;;;;;;;-148.99;100.00;63224.25;5048034;28;20140;-69
2024/02/26 03:53:21;;;;;;;5.55;2.80;;;;;;;-148.99;100.00;63224.25;5048524;28;20029;-73
2024/02/26 03:55:46;;;;;;;7.35;2.92;;;;;;;-148.99;100.00;63224.25;5048843;28;20029;-73
2024/02/26 03:58:13;;;;;;;5.70;2.92;;;;;;;-148.99;100.00;63224.25;5048948;28;20033;-70
2024/02/26 04:00:38;;;;;;;6.25;2.70;;;;;;;-148.99;100.00;63224.25;5047909;28;20040;-72
2024/02/26 04:03:04;;;;;;;7.03;2.88;;;;;;;-148.99;100.00;63224.25;5048507;28;20021;-74
2024/02/26 04:05:29;;;;;;;7.35;2.90;;;;;;;-148.99;100.00;63224.25;5048739;28;20373;-74
2024/02/26 04:07:54;;;;;;;7.55;3.47;;;;;;;-148.99;100.00;63224.25;5048984;28;20117;-74
2024/02/26 04:10:20;;;;;;;8.02;2.80;;;;;;;-148.99;100.00;63224.25;5047882;28;20066;-73
2024/02/26 04:12:46;;;;;;;8.27;2.72;;;;;;;-148.99;100.00;63224.25;5047746;28;20066;-74
2024/02/26 04:15:12;;;;;;;7.72;2.90;;;;;;;-148.99;100.00;63224.25;5050194;28;20040;-71
2024/02/26 04:17:38;;;;;;;7.82;3.47;;;;;;;-148.99;100.00;63224.25;5052467;28;20029;-73
2024/02/26 04:20:05;;;;;;;5.82;2.78;;;;;;;-148.99;100.00;63224.25;5051614;28;20372;-74
2024/02/26 04:22:32;;;;;;;6.32;3.15;;;;;;;-148.99;100.00;63224.25;5052372;28;20040;-73
2024/02/26 04:24:57;;;;;;;5.72;3.10;;;;;;;-148.99;100.00;63224.25;5051622;27;20033;-73
2024/02/26 04:27:22;;;;;;;6.93;3.20;;;;;;;-148.99;100.00;63224.25;5051977;28;20373;-75
2024/02/26 04:29:48;;;;;;;5.20;3.00;;;;;;;-148.99;100.00;63224.25;5051303;28;20104;-70
2024/02/26 04:32:13;;;;;;;8.05;3.30;;;;;;;-148.99;100.00;63224.25;5050761;28;20029;-72
2024/02/26 04:34:39;;;;;;;7.95;3.05;;;;;;;-148.99;100.00;63224.25;5050821;28;20037;-71
2024/02/26 04:37:04;;;;;;;8.40;3.45;;;;;;;-148.99;100.00;63224.25;5051303;28;20041;-65
2024/02/26 04:39:30;;;;;;;8.90;3.10;;;;;;;-148.99;100.00;63224.25;5051300;28;20035;-70
2024/02/26 04:41:55;;;;;;;6.47;3.50;;;;;;;-148.99;100.00;63224.25;5051261;28;20419;-70
2024/02/26 04:44:20;;;;;;;6.22;3.00;;;;;;;-148.99;100.00;63224.25;5050645;28;20373;-70
2024/02/26 04:46:46;;;;;;;4.40;2.63;;;;;;;-148.99;100.00;63224.25;5050698;28;20029;-70
2024/02/26 04:49:11;;;;;;;8.68;3.58;;;;;;;-148.99;100.00;63224.25;5050800;28;20412;-71
2024/02/26 04:51:37;;;;;;;9.90;3.58;;;;;;;-148.99;100.00;63224.25;5051534;28;20048;-71
2024/02/26 04:54:02;;;;;;;7.07;3.38;;;;;;;-148.99;100.00;63224.25;5050611;28;20041;-71
2024/02/26 04:56:28;;;;;;;8.38;3.53;;;;;;;-148.99;100.00;63224.25;5049307;28;20453;-70
2024/02/26 04:58:53;;;;;;;7.75;3.45;;;;;;;-148.99;100.00;63224.25;5050915;28;20043;-68
2024/02/26 05:01:19;;;;;;;8.98;3.65;;;;;;;-148.99;100.00;63224.25;5050826;28;20028;-71
2024/02/26 05:03:44;;;;;;;7.88;3.45;;;;;;;-148.99;100.00;63224.25;5050754;28;20381;-71
2024/02/26 05:06:10;;;;;;;5.22;3.05;;;;;;;-148.99;100.00;63224.25;5051227;28;20085;-71
2024/02/26 05:08:36;;;;;;;12.80;3.67;;;;;;;-148.99;100.00;63224.25;5050729;28;20449;-67
2024/02/26 05:11:05;;;;;;;7.80;3.40;;;;;;;-148.99;100.00;63224.25;5049044;28;20028;-70
2024/02/26 05:13:31;;;;;;;5.70;3.05;;;;;;;-148.99;100.00;63224.25;5050611;28;20452;-71
2024/02/26 05:15:56;;;;;;;9.52;3.72;;;;;;;-148.99;100.00;63224.25;5051014;28;20054;-73
2024/02/26 05:18:22;;;;;;;10.07;3.97;;;;;;;-148.99;100.00;63224.25;5050183;28;20035;-73
2024/02/26 05:20:47;;;;;;;7.97;4.00;;;;;;;-148.99;100.00;63224.25;5050366;28;20036;-74
2024/02/26 05:23:13;;;;;;;6.47;3.65;;;;;;;-148.99;100.00;63224.25;5051085;28;20448;-72
2024/02/26 05:25:39;;;;;;;6.22;3.85;;;;;;;-148.99;100.00;63224.25;5049408;27;20040;-67
2024/02/26 05:28:04;;;;;;;10.13;4.00;;;;;;;-148.99;100.00;63224.25;5049982;28;20108;-68
2024/02/26 05:30:30;;;;;;;9.13;4.05;;;;;;;-148.99;100.00;63224.25;5050366;28;20072;-67
2024/02/26 05:32:55;;;;;;;6.32;3.97;;;;;;;-148.99;100.00;63224.25;5050940;28;20477;-66
2024/02/26 05:35:21;;;;;;;13.48;5.32;;;;;;;-148.99;100.00;63224.25;5050377;28;20041;-63
2024/02/26 05:37:46;;;;;;;8.60;4.10;;;;;;;-148.99;100.00;63224.25;5050280;28;20060;-62
2024/02/26 05:40:12;;;;;;;8.43;4.35;;;;;;;-148.99;100.00;63224.25;5050084;28;20025;-63
2024/02/26 05:42:37;;;;;;;10.75;4.55;;;;;;;-148.99;100.00;63224.25;5050332;28;20021;-63
2024/02/26 05:45:06;;;;;;;12.32;4.15;;;;;;;-148.99;100.00;63224.25;5049660;28;20132;-66
2024/02/26 05:47:34;;;;;;;9.07;3.90;;;;;;;-148.99;100.00;63224.25;5049234;28;20057;-67
2024/02/26 05:50:00;;;;;;;12.82;4.60;;;;;;;-148.99;100.00;63224.25;5049569;28;20056;-64
2024/02/26 05:52:27;;;;;;;8.82;4.55;;;;;;;-148.99;100.00;63224.25;5049725;28;20453;-65
2024/02/26 05:54:53;;;;;;;10.13;4.22;;;;;;;-148.99;100.00;63224.25;5049474;28;20044;-67
2024/02/26 05:57:19;;;;;;;7.38;4.10;;;;;;;-148.99;100.00;63224.25;5050018;28;20037;-66
2024/02/26 05:59:45;;;;;;;9.15;4.55;;;;;;;-148.99;100.00;63224.25;5049557;28;20039;-65
2024/02/26 06:02:10;;;;;;;7.93;4.13;;;;;;;-148.99;100.00;63224.25;5050587;28;20064;-65
2024/02/26 06:04:36;;;;;;;10.25;4.70;;;;;;;-148.99;100.00;63224.25;5050497;28;20441;-65
2024/02/26 06:07:02;;;;;;;9.85;4.53;;;;;;;-148.99;100.00;63224.25;5050014;28;20054;-65
2024/02/26 06:09:27;;;;;;;9.70;4.68;;;;;;;-148.99;100.00;63224.25;5032548;28;20056;-61
2024/02/26 06:11:52;;;;;;;10.57;4.70;;;;;;;-148.99;100.00;63224.25;5045097;28;20057;-65
2024/02/26 06:14:19;;;;;;;10.07;4.70;;;;;;;-148.99;100.00;63224.25;5050321;28;20357;-64
2024/02/26 06:16:44;;;;;;;17.55;4.28;;;;;;;-148.99;100.00;63224.25;5049398;28;20029;-65
2024/02/26 06:19:10;;;;;;;7.88;4.60;;;;;;;-148.99;100.00;63224.25;5049677;28;20044;-64
2024/02/26 06:21:36;;;;;;;12.05;5.07;;;;;;;-148.99;100.00;63224.25;5049460;28;20028;-65
2024/02/26 06:24:01;;;;;;;9.32;5.43;;;;;;;-148.99;100.00;63224.25;5049441;28;20036;-66
2024/02/26 06:26:29;;;;;;;9.10;4.68;;;;;;;-148.99;100.00;63224.25;5049164;27;20407;-65
2024/02/26 06:28:55;;;;;;;12.77;4.95;;;;;;;-148.99;100.00;63224.25;5049244;28;20079;-65
2024/02/26 06:31:22;;;;;;;14.75;5.55;;;;;;;-148.99;100.00;63224.25;5048059;28;20071;-65
2024/02/26 06:33:48;;;;;;;11.07;4.50;;;;;;;-148.99;100.00;63224.25;5048369;28;20070;-65
2024/02/26 06:36:14;;;;;;;10.23;4.85;;;;;;;-148.99;100.00;63224.25;5048934;28;20061;-65
2024/02/26 06:38:39;;;;;;;11.40;5.35;;;;;;;-148.99;100.00;63224.25;5049142;28;20068;-65
2024/02/26 06:41:05;;;;;;;13.25;5.88;;;;;;;-148.99;100.00;63224.25;5049526;28;20037;-64
2024/02/26 06:43:30;;;;;;;8.82;5.38;;;;;;;-148.99;100.00;63224.25;5048690;28;20096;-65
2024/02/26 06:45:56;;;;;;;10.57;5.22;;;;;;;-148.99;100.00;63224.25;5048280;28;20037;-66
2024/02/26 06:48:23;;;;;;;10.57;5.38;;;;;;;-148.99;100.00;63224.25;5048360;28;20029;-65
2024/02/26 06:50:49;;;;;;;13.35;5.65;;;;;;;-148.99;100.00;63224.25;5048700;28;20033;-65
2024/02/26 06:53:14;;;;;;;10.38;5.53;;;;;;;-148.99;100.00;63224.25;5049340;28;20036;-64
2024/02/26 06:55:40;;;;;;;13.73;5.40;;;;;;;-148.99;100.00;63224.25;5049441;28;20045;-65
2024/02/26 06:58:06;;;;;;;11.40;5.28;;;;;;;-148.99;100.00;63224.25;5048649;28;20209;-64
2024/02/26 07:00:31;;;;;;;14.10;5.65;;;;;;;-148.99;100.00;63224.25;5049077;28;20087;-65
2024/02/26 07:02:58;;;;;;;12.75;5.65;;;;;;;-148.99;100.00;63224.25;5047908;28;20029;-66
2024/02/26 07:05:23;;;;;;;11.70;5.63;;;;;;;-148.99;100.00;63224.25;5048509;28;20137;-65
2024/02/26 07:07:49;;;;;;;9.10;5.47;;;;;;;-148.99;100.00;63224.25;5048383;28;20409;-65
2024/02/26 07:10:14;;;;;;;11.43;5.82;;;;;;;-148.99;100.00;63224.25;5049440;28;20029;-64
2024/02/26 07:12:40;;;;;;;11.15;5.10;;;;;;;-148.99;100.00;63224.25;5048929;28;20029;-64
2024/02/26 07:15:07;;;;;;;9.30;5.38;;;;;;;-148.99;100.00;63224.25;5047354;28;20028;-64
2024/02/26 07:17:34;;;;;;;11.15;5.68;;;;;;;-148.99;100.00;63224.25;5049399;28;20731;-65
2024/02/26 07:19:59;;;;;;;14.13;5.85;;;;;;;-148.99;100.00;63224.25;5049042;28;20048;-66
2024/02/26 07:22:25;;;;;;;13.68;5.35;;;;;;;-148.99;100.00;63224.25;5048624;28;20203;-65
2024/02/26 07:24:51;;;;;;;10.27;5.25;;;;;;;-148.99;100.00;63224.25;5048646;28;20079;-65
2024/02/26 07:27:18;;;;;;;9.10;4.95;;;;;;;-148.99;100.00;63224.25;5049297;28;20021;-65
2024/02/26 07:29:43;;;;;;;11.75;5.13;;;;;;;-148.99;100.00;63224.25;5048075;27;20104;-66
2024/02/26 07:32:09;;;;;;;10.57;5.40;;;;;;;-148.99;100.00;63224.25;5047850;28;20119;-65
2024/02/26 07:34:35;;;;;;;10.93;5.45;;;;;;;-148.99;100.00;63224.25;5047878;28;20033;-65
2024/02/26 07:37:00;;;;;;;10.73;5.60;;;;;;;-148.99;100.00;63224.25;5048640;28;20052;-67
2024/02/26 07:39:26;;;;;;;11.93;5.30;;;;;;;-148.99;100.00;63224.25;5049026;28;20037;-64
2024/02/26 07:41:52;;;;;;;12.65;5.20;;;;;;;-148.99;100.00;63224.25;5046596;28;20025;-65
2024/02/26 07:44:18;;;;;;;11.85;5.30;;;;;;;-148.99;100.00;63224.25;5048161;28;20043;-67
2024/02/26 07:46:44;;;;;;;11.00;5.20;;;;;;;-148.99;100.00;63224.25;5048342;28;20029;-64
2024/02/26 07:49:09;;;;;;;12.63;5.70;;;;;;;-148.99;100.00;63224.25;5050176;28;20044;-64
2024/02/26 07:51:35;;;;;;;11.20;5.25;;;;;;;-148.99;100.00;63224.25;5051922;28;20053;-65
2024/02/26 07:54:01;;;;;;;9.30;5.32;;;;;;;-148.99;100.00;63224.25;5051235;28;20045;-64
2024/02/26 07:56:26;;;;;;;10.68;5.50;;;;;;;-148.99;100.00;63224.25;5051501;28;20101;-64
2024/02/26 07:58:52;;;;;;;15.68;5.75;;;;;;;-148.99;100.00;63224.25;5052262;28;20028;-64
2024/02/26 08:01:17;;;;;;;14.50;6.03;;;;;;;-148.99;100.00;63224.25;5034056;28;20036;-64
2024/02/26 08:03:43;;;;;;;13.60;5.57;;;;;;;-148.99;100.00;63224.25;5050460;28;20025;-66
2024/02/26 08:06:08;;;;;;;11.82;5.55;;;;;;;-148.99;100.00;63224.25;5051837;28;20033;-65
2024/02/26 08:08:34;;;;;;;13.65;5.45;;;;;;;-148.99;100.00;63224.25;5052384;28;20032;-65
2024/02/26 08:11:00;;;;;;;12.27;5.07;;;;;;;-148.99;100.00;63224.25;5051410;28;20080;-65
2024/02/26 08:13:26;;;;;;;10.82;5.30;;;;;;;-148.99;100.00;63224.25;5051316;28;20056;-65
2024/02/26 08:15:52;;;;;;;15.18;5.55;;;;;;;-148.99;100.00;63224.25;5051936;28;20037;-66
2024/02/26 08:18:19;;;;;;;10.02;5.60;;;;;;;-148.99;100.00;63224.25;5051573;28;20033;-64
2024/02/26 08:20:46;;;;;;;10.00;5.00;;;;;;;-148.99;100.00;63224.25;5043979;28;20037;-62
2024/02/26 08:23:11;;;;;;;17.33;6.70;;;;;;;-148.99;100.00;63224.25;5042832;28;20380;-64
2024/02/26 08:25:37;;;;;;;14.55;6.03;;;;;;;-148.99;100.00;63224.25;5023050;28;20035;-66
2024/02/26 08:28:02;;;;;;;15.07;7.00;;;;;;;-148.99;100.00;63224.25;5031436;28;20026;-66
2024/02/26 08:30:28;;;;;;;13.07;6.18;;;;;;;-148.99;100.00;63224.25;5047678;28;20116;-69
2024/02/26 08:32:53;;;;;;;13.27;5.85;;;;;;;-148.99;100.00;63224.25;5050949;28;20040;-71
2024/02/26 08:35:19;;;;;;;11.68;5.55;;;;;;;-148.99;100.00;63224.25;5050350;28;20346;-68
2024/02/26 08:37:46;;;;;;;13.32;6.05;;;;;;;-148.99;100.00;63224.25;5049630;28;20058;-70
2024/02/26 08:40:11;;;;;;;10.60;5.43;;;;;;;-148.99;100.00;63224.25;5049946;28;20496;-70
2024/02/26 08:42:37;;;;;;;10.00;5.80;;;;;;;-148.99;100.00;63224.25;5050813;28;20128;-68
2024/02/26 08:45:03;;;;;;;8.95;5.55;;;;;;;-148.99;100.00;63224.25;5050103;28;20033;-71
2024/02/26 08:47:29;;;;;;;13.85;5.75;;;;;;;-148.99;100.00;63224.25;5048892;27;20666;-71
2024/02/26 08:49:55;;;;;;;12.20;6.22;;;;;;;-148.99;100.00;63224.25;5049501;27;20065;-67
2024/02/26 08:52:21;;;;;;;13.77;6.05;;;;;;;-148.99;100.00;63224.25;5049281;28;20052;-69
2024/02/26 08:54:47;;;;;;;16.25;6.70;;;;;;;-148.99;100.00;63224.25;5047652;28;20045;-71
2024/02/26 08:57:13;;;;;;;8.07;4.97;;;;;;;-148.99;100.00;63224.25;5051108;28;20025;-69
2024/02/26 08:59:38;;;;;;;12.40;5.65;;;;;;;-148.99;100.00;63224.25;5042136;28;20425;-71
2024/02/26 09:02:04;;;;;;;12.38;5.97;;;;;;;-148.99;100.00;63224.25;5049963;28;20037;-70
2024/02/26 09:04:29;;;;;;;16.52;5.88;;;;;;;-148.99;100.00;63224.25;5049870;28;20454;-67
2024/02/26 09:06:55;;;;;;;11.57;6.43;;;;;;;-148.99;100.00;63224.25;5046546;27;20243;-68
2024/02/26 09:09:22;;;;;;;13.13;5.45;;;;;;;-148.99;100.00;63224.25;5049414;28;20443;-68
2024/02/26 09:11:48;;;;;;;11.18;5.45;;;;;;;-148.99;100.00;63224.25;5049688;28;20452;-70
2024/02/26 09:14:14;;;;;;;10.35;5.53;;;;;;;-148.99;100.00;63224.25;5050587;28;20094;-68
2024/02/26 09:16:39;;;;;;;13.43;5.63;;;;;;;-148.99;100.00;63224.25;5049893;28;20516;-73
2024/02/26 09:19:05;;;;;;;11.48;5.20;;;;;;;-148.99;100.00;63224.25;5049394;28;20510;-67
2024/02/26 09:21:30;;;;;;;17.05;5.97;;;;;;;-148.99;100.00;63224.25;5045185;28;20025;-68
2024/02/26 09:23:56;;;;;;;8.75;5.15;;;;;;;-148.99;100.00;63224.25;5044207;28;20465;-67
2024/02/26 09:26:21;;;;;;;14.68;5.28;;;;;;;-148.99;100.00;63224.25;5049849;28;20037;-67
2024/02/26 09:28:47;;;;;;;13.38;5.70;;;;;;;-148.99;100.00;63224.25;5049889;28;20537;-69
2024/02/26 09:31:12;;;;;;;12.50;5.43;;;;;;;-148.99;100.00;63224.25;5048725;28;20029;-68
2024/02/26 09:33:37;;;;;;;15.88;5.65;;;;;;;-148.99;100.00;63224.25;5049965;28;20171;-70
2024/02/26 09:36:04;;;;;;;10.77;5.00;;;;;;;-148.99;100.00;63224.25;5046755;27;20031;-69
2024/02/26 09:38:29;;;;;;;14.82;5.88;;;;;;;-148.99;100.00;63224.25;5045807;28;20051;-68
2024/02/26 09:40:59;;;;;;;8.05;5.03;;;;;;;-148.99;100.00;63224.25;5049719;28;20512;-69
2024/02/26 09:43:31;;;;;;;12.18;4.40;;;;;;;-148.99;100.00;63224.25;5031310;28;20112;-68
2024/02/26 09:45:57;;;;;;;11.88;5.05;;;;;;;-148.99;100.00;63224.25;5028747;28;20034;-66
2024/02/26 09:48:23;;;;;;;12.18;5.22;;;;;;;-148.99;100.00;63224.25;5046911;28;20037;-68
2024/02/26 09:50:49;;;;;;;17.30;5.50;;;;;;;-148.99;100.00;63224.25;5046419;28;20038;-63
2024/02/26 09:53:15;;;;;;;13.93;5.53;;;;;;;-148.99;100.00;63224.25;5048267;28;20468;-64
2024/02/26 09:55:41;;;;;;;17.85;6.13;;;;;;;-148.99;100.00;63224.25;5042288;28;20087;-65
2024/02/26 09:58:07;;;;;;;14.00;6.30;;;;;;;-148.99;100.00;63224.25;5048397;28;20025;-62
2024/02/26 10:00:37;;;;;;;12.50;6.50;;;;;;;-148.99;100.00;63224.25;5049841;28;20036;-73
2024/02/26 10:03:04;;;;;;;10.23;5.25;;;;;;;-148.99;100.00;63224.25;5046195;28;20037;-74
2024/02/26 10:05:33;;;;;;;10.30;5.43;;;;;;;-148.99;100.00;63224.25;5029638;28;20468;-74
2024/02/26 10:08:00;;;;;;;11.15;5.45;;;;;;;-148.99;100.00;63224.25;5042783;28;20369;-72
2024/02/26 10:10:29;;;;;;;9.70;5.03;;;;;;;-148.99;100.00;63224.25;5048942;28;20358;-70
2024/02/26 10:12:54;;;;;;;10.82;5.20;;;;;;;-148.99;100.00;63224.25;5047319;28;20033;-69
2024/02/26 10:15:20;;;;;;;10.07;5.00;;;;;;;-148.99;100.00;63224.25;5045297;28;20032;-72
2024/02/26 10:17:45;;;;;;;11.77;5.43;;;;;;;-148.99;100.00;63224.25;5045634;27;20029;-70
2024/02/26 10:20:16;;;;;;;13.63;5.55;;;;;;;-148.99;100.00;63224.25;5028028;28;20029;-74
2024/02/26 10:22:42;;;;;;;16.23;6.68;;;;;;;-148.99;100.00;63224.25;5033030;28;20377;-71
2024/02/26 10:25:08;;;;;;;13.10;6.78;;;;;;;-148.99;100.00;63224.25;5035855;28;20081;-69
2024/02/26 10:27:34;;;;;;;12.68;6.20;;;;;;;-148.99;100.00;63224.25;5049085;28;20370;-69
2024/02/26 10:30:04;;;;;;;10.85;5.45;;;;;;;-148.99;100.00;63224.25;5048947;28;20025;-70
2024/02/26 10:32:31;;;;;;;10.10;5.28;;;;;;;-148.99;100.00;63224.25;5049252;28;20029;-72
2024/02/26 10:34:57;;;;;;;10.00;4.93;;;;;;;-148.99;100.00;63224.25;5047814;28;20096;-71
2024/02/26 10:37:23;;;;;;;14.05;5.30;;;;;;;-148.99;100.00;63224.25;5048324;28;20433;-71
2024/02/26 10:39:48;;;;;;;10.52;5.35;;;;;;;-148.99;100.00;63224.25;5048996;28;20025;-71
2024/02/26 10:42:15;;;;;;;7.50;4.88;;;;;;;-148.99;100.00;63224.25;5043448;28;20118;-70
2024/02/26 10:44:40;;;;;;;10.77;5.35;;;;;;;-148.99;100.00;63224.25;5038552;28;20500;-67
2024/02/26 10:47:07;;;;;;;8.80;5.43;;;;;;;-148.99;100.00;63224.25;5046372;28;20105;-71
2024/02/26 10:49:35;;;;;;;13.15;5.03;;;;;;;-148.99;100.00;63224.25;5026859;28;20040;-66
2024/02/26 10:52:02;;;;;;;14.13;5.85;;;;;;;-148.99;100.00;63224.25;5043343;28;20045;-69
2024/02/26 10:54:29;;;;;;;16.75;5.70;;;;;;;-148.99;100.00;63224.25;5048438;28;20063;-67
2024/02/26 10:56:57;;;;;;;10.27;5.03;;;;;;;-148.99;100.00;63224.25;5048560;28;20121;-68
2024/02/26 10:59:23;;;;;;;15.02;5.32;;;;;;;-148.99;100.00;63224.25;5047603;28;20104;-68
2024/02/26 11:01:50;;;;;;;13.55;6.38;;;;;;;-148.99;100.00;63224.25;5049071;28;20173;-68